Drucken
vwd group

Indexkurslisten

ZeitKursKurs (Vortag)% (Vortag)Kurs (1 Jahr)% (1 Jahr)
Gewinner
AUTOZONE INC. ... 22.09.17 472,68 472,68 +2,67 -141,920 -30,02%
ALTRIA 22.09.17 52,35 52,35 +2,03 -4,471 -8,54%
ALASKA AIR GRP INC. ... 22.09.17 62,29 62,29 +2,01 1,600 +2,57%
BORGWARNER INC. ... 22.09.17 41,93 41,93 +1,68 15,199 +36,24%
CISCO 22.09.17 28,00 28,00 +1,57 -0,407 -1,45%
PETE ANADARKO 22.09.17 40,80 40,80 +1,22 -9,423 -23,10%
ACUITY BRANDS INC... 22.09.17 135,70 135,70 +1,17 -57,840 -42,62%
CONOCOPHILLIPS 22.09.17 41,11 41,11 +1,16 5,498 +13,37%
ANALOG DEVICES 22.09.17 70,98 70,98 +1,11 17,352 +24,45%
ADVANCE AUTO PA... 22.09.17 79,02 79,02 +1,10 -31,696 -40,11%
HESS CORP. ... 22.09.17 36,90 36,90 +1,10 -5,016 -13,59%
ALLIANCE DATA SYS... 22.09.17 181,55 181,55 +1,03 -13,200 -7,27%
CUMMINS INC. DL... 22.09.17 140,69 140,69 +0,98 41,903 +29,78%
CABOT OIL&GAS 22.09.17 22,19 22,19 +0,89 -0,878 -3,96%
AUTOM. DATA 22.09.17 90,17 90,17 +0,85 11,225 +12,45%
AMERIPRISE 22.09.17 119,87 119,87 +0,80 39,484 +32,94%
TRANSDIGM GROUP ... 22.09.17 217,24 217,24 +0,60 -27,818 -12,81%
CHIPOTLE MEX.GR. DL... 22.09.17 263,33 263,33 +0,59 -74,253 -28,20%
BALL CORP. 22.09.17 34,14 34,14 +0,55 -1,138 -3,33%
CAPITAL ONE 22.09.17 68,37 68,37 +0,54 4,408 +6,45%
CHEVRON 22.09.17 97,97 97,97 +0,53 8,534 +8,71%
ABBOTT LABS 22.09.17 43,58 43,58 +0,53 6,726 +15,43%
GALLAGHER , A.J. ... 22.09.17 50,84 50,84 +0,52 6,067 +11,93%
BROWN-FORMAN CORP B... 22.09.17 45,40 45,40 +0,51 2,959 +6,52%
COMERICA 22.09.17 61,34 61,34 +0,49 28,552 +46,55%
SCHLUMBERGER 22.09.17 57,44 57,44 +0,49 -9,486 -16,52%
FRANKLIN RES INC. ... 22.09.17 35,82 35,82 +0,48 4,166 +11,63%
CADENCE DESIGN SYS... 22.09.17 32,21 32,21 +0,45 14,842 +46,08%
APPLIED MATLS 22.09.17 39,75 39,75 +0,42 19,310 +48,58%
AT&T 22.09.17 32,14 32,14 +0,40 -3,768 -11,73%
COMCAST 22.09.17 31,57 31,57 +0,36 1,600 +5,07%
BB&T 22.09.17 37,74 37,74 +0,33 3,951 +10,47%
APACHE 22.09.17 36,24 36,24 +0,26 -11,993 -33,09%
VIACOM 22.09.17 23,14 23,14 +0,26 -6,471 -27,96%
SALESFORCE 22.09.17 79,26 79,26 +0,25 15,387 +19,41%
CINCINNATI FINL ... 22.09.17 63,41 63,41 +0,25 -4,068 -6,42%
SMITH -A.O.- CORP. ... 22.09.17 49,57 49,57 +0,24 64,467 +130,05%
AMER. EXPRESS 22.09.17 73,93 73,93 +0,24 21,416 +28,97%
BOEING 22.09.17 214,59 214,59 +0,24 186,418 +86,87%
ARCHER DANIELS 22.09.17 36,38 36,38 +0,21 -1,712 -4,71%
BLACKROCK CL. A DL... 22.09.17 363,69 363,69 +0,21 38,649 +10,63%
CHESAPEAKE NRG 22.09.17 3,47 3,47 +0,20 -1,498 -43,12%
CME GROUP 22.09.17 111,64 111,64 +0,19 15,717 +14,08%
REGIONS FINL 22.09.17 12,03 12,03 +0,17 4,774 +39,68%
AFLAC 22.09.17 70,17 70,17 +0,16 4,640 +6,61%
MOLSON COORS B DL... 22.09.17 69,25 69,25 +0,13 -18,469 -26,67%
CA 22.09.17 27,14 27,14 +0,13 -1,986 -7,32%
MASTERCARD 22.09.17 118,72 118,72 +0,08 37,152 +31,29%
COACH INC. ... 22.09.17 33,13 33,13 +0,06 0,448 +1,35%
BIOGEN 22.09.17 264,10 264,10 +0,04 6,510 +2,47%
CH ROBINSON 22.09.17 61,16 61,16 +0,03 -0,700 -1,15%
AMERISOURCEBERGEN ... 22.09.17 67,38 67,38 +0,03 -6,358 -9,44%
BEST BUY 22.09.17 45,03 45,03 +0,02 14,333 +31,83%
CITRIX 22.09.17 63,74 63,74 +0,00 3,485 +5,47%

Verlierer
CENTENE CORP. ... 22.09.17 73,50 73,50 -3,06 18,028 +24,53%
AMD 22.09.17 11,00 11,00 -2,47 10,379 +94,35%
CLOROX 22.09.17 108,54 108,54 -2,23 -1,345 -1,24%
CF INDS HLDGS ... 22.09.17 29,55 29,55 -2,02 12,541 +42,44%
AETNA INC. ... 22.09.17 126,37 126,37 -1,96 28,485 +22,54%
ALBEMARLE CORP. ... 22.09.17 111,66 111,66 -1,59 61,211 +54,82%
APPLE 22.09.17 126,87 126,87 -1,57 30,429 +23,98%
AMETEK INC. ... 22.09.17 54,77 54,77 -1,46 15,182 +27,72%
CONAGRA FOODS 22.09.17 27,79 27,79 -1,35 -2,207 -7,94%
CARDINAL HEALTH... 22.09.17 55,57 55,57 -1,24 -10,498 -18,89%
AMAZON 22.09.17 799,73 799,73 -1,24 99,510 +12,44%
AMGEN 22.09.17 154,96 154,96 -1,20 -0,699 -0,45%
AMER. ELEC PWR 22.09.17 59,14 59,14 -1,17 0,608 +1,03%
CERNER CORP. ... 22.09.17 57,74 57,74 -1,13 2,027 +3,51%
ADOBE 22.09.17 123,74 123,74 -1,02 35,665 +28,82%
AES 22.09.17 9,29 9,29 -1,00 -1,926 -20,72%
BOSTON PROPERTIES... 22.09.17 102,17 102,17 -0,94 -18,081 -17,70%
CHURCH + DWIGHT CO... 22.09.17 40,43 40,43 -0,91 -2,527 -6,25%
DIGITAL REALTY TR... 22.09.17 95,70 95,70 -0,90 8,950 +9,35%
UNDER ARMOUR A... 22.09.17 13,69 13,69 -0,80 -8,371 -61,15%
CENTERPOINT ENERGY... 22.09.17 24,29 24,29 -0,76 3,556 +14,64%
AVALONBAY COMM. ... 22.09.17 149,75 149,75 -0,71 -11,515 -7,69%
EXTRA SPACE ST.SBI... 22.09.17 66,06 66,06 -0,66 -4,278 -6,48%
COLGATE PALMO. 22.09.17 59,48 59,48 -0,65 -5,096 -8,57%
PATTERSON 22.09.17 31,19 31,19 -0,57 -7,450 -23,89%
AVERY DENNISON ... 22.09.17 82,51 82,51 -0,49 15,026 +18,21%
BK OF AMERICA 22.09.17 20,95 20,95 -0,49 10,474 +49,98%
CARNIVAL 22.09.17 53,68 53,68 -0,47 15,223 +28,36%
ALLSTATE 22.09.17 75,67 75,67 -0,45 17,992 +23,78%
CATERPILLAR 22.09.17 104,16 104,16 -0,43 41,876 +40,20%
CELGENE 22.09.17 119,77 119,77 -0,42 25,456 +21,25%
BOSTON SCIENT. 22.09.17 24,00 24,00 -0,38 3,279 +13,66%
BRISTOL MYERS 22.09.17 52,82 52,82 -0,38 2,973 +5,63%
AGILENT 22.09.17 54,95 54,95 -0,38 18,763 +34,15%
ROCKWELL COLL. 22.09.17 108,91 108,91 -0,34 50,314 +46,20%
AIR PROD. CHEM. ... 22.09.17 125,98 125,98 -0,27 -6,435 -5,11%
CBS 22.09.17 49,24 49,24 -0,24 4,970 +10,09%
COCA COLA 22.09.17 38,08 38,08 -0,23 -0,194 -0,51%
CINTAS 22.09.17 114,17 114,17 -0,22 13,864 +12,14%
CIGNA CORP. ... 22.09.17 151,39 151,39 -0,21 42,819 +28,28%
AMPHENOL CORP. A... 22.09.17 69,42 69,42 -0,20 13,626 +19,63%
BECTON DICKINSN 22.09.17 161,26 161,26 -0,19 1,271 +0,79%
NRG ENERGY INC. ... 22.09.17 20,08 20,08 -0,15 18,305 +91,14%
BAXTER 22.09.17 53,05 53,05 -0,11 13,264 +25,00%
BK OF NY MELLON 22.09.17 43,76 43,76 -0,09 8,657 +19,78%
BARD -C.R.- INC. DL... 22.09.17 266,42 266,42 -0,02 77,730 +29,18%

Mehr Marktdaten und Kurse finden Sie auf www.finanztreff.de